This is the latest recevied weather packets stored in our database for station/object GW1598. If no packets are shown the sender has not sent any weather packets the latest 10 day(s).
| Time | Temp. | Humidity | Pressure | Rain* | Wind** | Luminosity | Snow |
|---|---|---|---|---|---|---|---|
| 1776975323 | 27.22° C | 47% | 1008.4 hPa | 0 mm | - | - | - |
| 1776973873 | 27.22° C | 48% | 1009.1 hPa | 0 mm | - | - | - |
| 1776970642 | 26.11° C | 50% | 1009.8 hPa | 0 mm | - | - | - |
| 1776969951 | 26.11° C | 50% | 1009.8 hPa | 0 mm | - | - | - |
| 1776969208 | 25.56° C | 55% | 1010.1 hPa | 0 mm | - | - | - |
| 1776968863 | 25° C | 53% | 1010.1 hPa | 0 mm | - | - | - |
| 1776965605 | 25° C | 57% | 1010.8 hPa | 0 mm | - | - | - |
| 1776965250 | 25° C | 57% | 1011.1 hPa | 0 mm | - | - | - |
| 1776964907 | 25° C | 57% | 1011.1 hPa | 0 mm | - | - | - |
| 1776962021 | 23.89° C | 60% | 1011.5 hPa | 0 mm | - | - | - |
| 1776961648 | 23.89° C | 59% | 1011.8 hPa | 0 mm | - | - | - |
| 1776959499 | 23.89° C | 60% | 1011.8 hPa | 0 mm | - | - | - |
| 1776959112 | 23.33° C | 61% | 1011.8 hPa | 0 mm | - | - | - |
| 1776958062 | 22.78° C | 63% | 1012.1 hPa | 0 mm | - | - | - |
| 1776956063 | 22.22° C | 62% | 1012.1 hPa | 0 mm | - | - | - |
| 1776953894 | 21.11° C | 66% | 1012.1 hPa | 0 mm | - | - | - |
| 1776951228 | 15° C | 98% | 1012.1 hPa | 0 mm | - | - | - |
| 1776949763 | 12.22° C | 99% | 1011.8 hPa | 0 mm | - | - | - |
| 1776947632 | 11.11° C | 99% | 1012.1 hPa | 0 mm | - | - | - |
| 1776947264 | 10° C | 99% | 1011.8 hPa | 0 mm | - | - | - |
| 1776945808 | 9.44° C | 99% | 1011.8 hPa | 0 mm | - | - | - |
| 1776941484 | 8.33° C | 98% | 1011.8 hPa | 0 mm | - | - | - |
| 1776938249 | 8.89° C | 97% | 1011.1 hPa | 0 mm | - | - | - |
| 1776937883 | 8.89° C | 97% | 1011.1 hPa | 0 mm | - | - | - |
| 1776932676 | 10° C | 97% | 1011.1 hPa | 0 mm | - | - | - |
* Rain since midnight (hover to see other rain measurements)
** Current wind speed in m/s (hover to see current wind gust speed)